createdAt,value
2023-01-03T00:03:18.813Z,0
2023-01-03T00:08:18.825Z,0
2023-01-03T00:13:18.801Z,0
2023-01-03T00:18:18.854Z,0
2023-01-03T00:23:18.823Z,0
2023-01-03T00:28:18.821Z,0
2023-01-03T00:33:18.762Z,0
2023-01-03T00:38:18.808Z,0
2023-01-03T00:43:18.757Z,0
2023-01-03T00:48:18.800Z,0
2023-01-03T00:53:18.789Z,0
2023-01-03T00:58:18.784Z,0
2023-01-03T01:03:18.955Z,0
2023-01-03T01:08:18.802Z,0
2023-01-03T01:13:18.769Z,0
2023-01-03T01:18:18.804Z,0
2023-01-03T01:23:18.752Z,0
2023-01-03T01:28:18.750Z,0
2023-01-03T01:33:18.754Z,0
2023-01-03T01:38:18.758Z,0
2023-01-03T01:43:18.754Z,0
2023-01-03T01:48:18.744Z,0
2023-01-03T01:53:18.777Z,0
2023-01-03T01:58:18.752Z,0
2023-01-03T02:03:18.823Z,0
2023-01-03T02:08:18.761Z,0
2023-01-03T02:13:18.717Z,0
2023-01-03T02:18:18.740Z,0
2023-01-03T02:23:18.724Z,0
2023-01-03T02:28:18.713Z,0
2023-01-03T02:33:18.698Z,0
2023-01-03T02:38:18.857Z,0
2023-01-03T02:43:18.717Z,0
2023-01-03T02:48:18.687Z,0
2023-01-03T02:53:18.729Z,0
2023-01-03T02:58:18.726Z,0
2023-01-03T03:03:18.814Z,0
2023-01-03T03:08:18.694Z,0
2023-01-03T03:13:18.746Z,0
2023-01-03T03:18:18.717Z,0
2023-01-03T03:23:18.686Z,0
2023-01-03T03:28:18.717Z,0
2023-01-03T03:33:18.700Z,0
2023-01-03T03:38:18.692Z,0
2023-01-03T03:43:18.703Z,0
2023-01-03T03:48:18.671Z,0
2023-01-03T03:53:18.685Z,0
2023-01-03T03:58:18.707Z,0
2023-01-03T04:03:18.794Z,0
2023-01-03T04:08:18.681Z,0
2023-01-03T04:13:18.657Z,0
2023-01-03T04:18:18.695Z,0
2023-01-03T04:23:18.671Z,0
2023-01-03T04:28:18.648Z,0
2023-01-03T04:33:18.691Z,0
2023-01-03T04:38:18.682Z,0
2023-01-03T04:43:18.659Z,0
2023-01-03T04:48:18.645Z,0
2023-01-03T04:53:18.665Z,0
2023-01-03T04:58:18.697Z,0
2023-01-03T05:03:21.412Z,0
2023-01-03T05:08:18.651Z,0
2023-01-03T05:13:18.642Z,0
2023-01-03T05:18:19.308Z,0
2023-01-03T05:23:18.884Z,0
2023-01-03T05:28:18.895Z,0
2023-01-03T05:33:18.882Z,0
2023-01-03T05:38:18.889Z,0
2023-01-03T05:43:18.867Z,0
2023-01-03T05:48:18.878Z,0
2023-01-03T05:53:18.868Z,0
2023-01-03T05:58:18.887Z,0
2023-01-03T06:03:18.880Z,0
2023-01-03T06:08:18.847Z,0
2023-01-03T06:13:18.834Z,0
2023-01-03T06:18:18.990Z,0
2023-01-03T06:23:18.865Z,0
2023-01-03T06:28:18.826Z,0
2023-01-03T06:33:18.830Z,0
2023-01-03T06:38:18.833Z,0
2023-01-03T06:43:18.826Z,0
2023-01-03T06:48:18.828Z,0
2023-01-03T06:53:18.828Z,0
2023-01-03T06:58:18.845Z,0
2023-01-03T07:03:23.363Z,0
2023-01-03T07:08:23.341Z,0
2023-01-03T07:13:23.392Z,0
2023-01-03T07:18:23.335Z,0
2023-01-03T07:23:23.366Z,0
2023-01-03T07:28:23.367Z,0
2023-01-03T07:33:23.396Z,0
2023-01-03T07:38:23.324Z,2
2023-01-03T07:43:23.316Z,2
2023-01-03T07:48:23.338Z,7
2023-01-03T07:53:23.356Z,11
2023-01-03T07:58:23.337Z,10
2023-01-03T08:03:23.301Z,13
2023-01-03T08:08:23.309Z,14
2023-01-03T08:13:23.331Z,15
2023-01-03T08:18:23.324Z,16
2023-01-03T08:23:23.291Z,18
2023-01-03T08:28:23.329Z,20
2023-01-03T08:33:23.344Z,25
2023-01-03T08:38:23.295Z,27
2023-01-03T08:43:23.302Z,32
2023-01-03T08:48:23.319Z,37
2023-01-03T08:53:23.307Z,37
2023-01-03T08:58:23.264Z,34
2023-01-03T09:03:23.402Z,150
2023-01-03T09:08:23.296Z,242
2023-01-03T09:13:23.328Z,270
2023-01-03T09:18:23.264Z,278
2023-01-03T09:23:23.306Z,281
2023-01-03T09:28:23.268Z,263
2023-01-03T09:33:23.312Z,277
2023-01-03T09:38:23.313Z,198
2023-01-03T09:43:25.554Z,149
2023-01-03T09:48:23.284Z,44
2023-01-03T09:53:23.259Z,61
2023-01-03T09:58:23.274Z,126
2023-01-03T10:03:23.304Z,177
2023-01-03T10:08:23.253Z,163
2023-01-03T10:13:23.276Z,121
2023-01-03T10:18:23.252Z,70
2023-01-03T10:23:23.237Z,44
2023-01-03T10:28:23.271Z,45
2023-01-03T10:33:23.284Z,46
2023-01-03T10:38:23.268Z,45
2023-01-03T10:43:23.226Z,44
2023-01-03T10:48:23.257Z,44
2023-01-03T10:53:23.294Z,44
2023-01-03T10:58:23.235Z,46
2023-01-03T11:03:23.313Z,47
2023-01-03T11:08:23.272Z,46
2023-01-03T11:13:23.227Z,47
2023-01-03T11:18:23.212Z,47
2023-01-03T11:23:23.209Z,51
2023-01-03T11:28:23.217Z,45
2023-01-03T11:33:28.923Z,48
2023-01-03T11:38:23.201Z,63
2023-01-03T11:43:23.194Z,94
2023-01-03T11:48:23.241Z,110
2023-01-03T11:53:23.228Z,114
2023-01-03T11:58:23.231Z,127
2023-01-03T12:03:23.311Z,74
2023-01-03T12:08:23.197Z,32
2023-01-03T12:13:29.033Z,25
2023-01-03T12:18:23.229Z,35
2023-01-03T12:23:23.187Z,37
2023-01-03T12:28:23.187Z,60
2023-01-03T12:33:23.231Z,65
2023-01-03T12:38:23.216Z,46
2023-01-03T12:43:23.204Z,113
2023-01-03T12:48:23.203Z,161
2023-01-03T12:53:23.225Z,114
2023-01-03T12:58:23.162Z,60
2023-01-03T13:03:23.291Z,71
2023-01-03T13:08:23.170Z,40
2023-01-03T13:13:23.198Z,46
2023-01-03T13:18:23.231Z,55
2023-01-03T13:23:23.203Z,29
2023-01-03T13:28:23.155Z,22
2023-01-03T13:33:23.190Z,15
2023-01-03T13:38:25.038Z,11
2023-01-03T13:43:23.191Z,18
2023-01-03T13:48:23.194Z,13
2023-01-03T13:53:23.169Z,13
2023-01-03T13:58:23.183Z,13
2023-01-03T14:03:23.235Z,8
2023-01-03T14:08:23.147Z,12
2023-01-03T14:13:23.206Z,17
2023-01-03T14:18:23.174Z,20
2023-01-03T14:23:58.199Z,16
2023-01-03T14:28:23.172Z,15
2023-01-03T14:33:23.186Z,18
2023-01-03T14:38:23.127Z,18
2023-01-03T14:43:23.138Z,15
2023-01-03T14:48:23.120Z,14
2023-01-03T14:53:23.164Z,19
2023-01-03T14:58:23.173Z,15
2023-01-03T15:03:23.299Z,9
2023-01-03T15:08:23.122Z,7
2023-01-03T15:13:23.160Z,7
2023-01-03T15:18:23.154Z,1
2023-01-03T15:23:23.123Z,0
2023-01-03T15:28:23.115Z,0
2023-01-03T15:33:23.180Z,0
2023-01-03T15:38:23.134Z,0
2023-01-03T15:43:23.131Z,0
2023-01-03T15:48:23.100Z,0
2023-01-03T15:53:23.145Z,0
2023-01-03T15:58:23.099Z,0
2023-01-03T16:03:23.231Z,0
2023-01-03T16:08:23.123Z,0
2023-01-03T16:13:23.147Z,0
2023-01-03T16:18:23.091Z,0
2023-01-03T16:23:23.092Z,0
2023-01-03T16:28:23.081Z,0
2023-01-03T16:33:23.172Z,0
2023-01-03T16:38:23.102Z,0
2023-01-03T16:43:23.120Z,0
2023-01-03T16:48:23.110Z,0
2023-01-03T16:53:23.124Z,0
2023-01-03T16:58:23.086Z,0
2023-01-03T17:03:23.151Z,0
2023-01-03T17:08:23.131Z,0
2023-01-03T17:13:23.114Z,0
2023-01-03T17:18:23.076Z,0
2023-01-03T17:23:23.062Z,0
2023-01-03T17:28:23.040Z,0
2023-01-03T17:33:23.983Z,0
2023-01-03T17:38:26.009Z,0
2023-01-03T17:43:23.063Z,0
2023-01-03T17:48:23.064Z,0
2023-01-03T17:53:23.074Z,0
2023-01-03T17:58:23.074Z,0
2023-01-03T18:03:23.102Z,0
2023-01-03T18:08:23.074Z,0
2023-01-03T18:13:23.061Z,0
2023-01-03T18:18:23.089Z,0
2023-01-03T18:23:23.052Z,0
2023-01-03T18:28:23.032Z,0
2023-01-03T18:33:23.075Z,0
2023-01-03T18:38:23.017Z,0
2023-01-03T18:43:23.022Z,0
2023-01-03T18:48:23.051Z,0
2023-01-03T18:53:23.022Z,0
2023-01-03T18:58:23.010Z,0
2023-01-03T19:03:23.167Z,0
2023-01-03T19:08:23.004Z,0
2023-01-03T19:13:23.059Z,0
2023-01-03T19:18:23.016Z,0
2023-01-03T19:23:22.998Z,0
2023-01-03T19:28:22.992Z,0
2023-01-03T19:33:23.035Z,0
2023-01-03T19:38:23.015Z,0
2023-01-03T19:43:23.010Z,0
2023-01-03T19:48:23.003Z,0
2023-01-03T19:53:23.032Z,0
2023-01-03T19:58:22.981Z,0
2023-01-03T20:03:23.207Z,0
2023-01-03T20:08:22.965Z,0
2023-01-03T20:13:23.011Z,0
2023-01-03T20:18:22.961Z,0
2023-01-03T20:23:22.965Z,0
2023-01-03T20:28:22.991Z,0
2023-01-03T20:33:23.025Z,0
2023-01-03T20:38:22.953Z,0
2023-01-03T20:43:22.975Z,0
2023-01-03T20:48:26.117Z,0
2023-01-03T20:53:22.973Z,0
2023-01-03T20:58:22.964Z,0
2023-01-03T21:03:23.076Z,0
2023-01-03T21:08:22.977Z,0
2023-01-03T21:13:22.959Z,0
2023-01-03T21:18:22.954Z,0
2023-01-03T21:23:22.947Z,0
2023-01-03T21:28:22.945Z,0
2023-01-03T21:33:22.967Z,0
2023-01-03T21:38:22.928Z,0
2023-01-03T21:43:22.935Z,0
2023-01-03T21:48:22.960Z,0
2023-01-03T21:53:22.971Z,0
2023-01-03T21:58:22.937Z,0
2023-01-03T22:03:22.965Z,0
2023-01-03T22:08:22.905Z,0
2023-01-03T22:13:22.973Z,0
2023-01-03T22:18:22.922Z,0
2023-01-03T22:23:22.908Z,0
2023-01-03T22:28:22.891Z,0
2023-01-03T22:33:22.952Z,0
2023-01-03T22:38:22.933Z,0
2023-01-03T22:43:22.910Z,0
2023-01-03T22:48:22.879Z,0
2023-01-03T22:53:22.943Z,0
2023-01-03T22:58:22.900Z,0
2023-01-03T23:03:22.910Z,0
2023-01-03T23:08:22.885Z,0
2023-01-03T23:13:22.921Z,0
2023-01-03T23:18:22.911Z,0
2023-01-03T23:23:22.883Z,0
2023-01-03T23:28:22.867Z,0
2023-01-03T23:33:22.880Z,0
2023-01-03T23:38:22.865Z,0
2023-01-03T23:43:22.885Z,0
2023-01-03T23:48:22.871Z,0
2023-01-03T23:53:22.899Z,0
2023-01-03T23:58:22.835Z,0
